sensor_id;sensor_type;location;lat;lon;timestamp;P1;durP1;ratioP1;P2;durP2;ratioP2
18376;SDS011;9315;52.624;13.544;2023-10-13T00:00:34;22.50;;;7.60;;
18376;SDS011;9315;52.624;13.544;2023-10-13T00:03:03;22.10;;;7.97;;
18376;SDS011;9315;52.624;13.544;2023-10-13T00:05:32;24.77;;;7.90;;
18376;SDS011;9315;52.624;13.544;2023-10-13T00:08:00;26.10;;;8.33;;
18376;SDS011;9315;52.624;13.544;2023-10-13T00:10:30;20.30;;;7.30;;
18376;SDS011;9315;52.624;13.544;2023-10-13T00:12:57;19.50;;;7.10;;
18376;SDS011;9315;52.624;13.544;2023-10-13T00:15:42;20.07;;;6.80;;
18376;SDS011;9315;52.624;13.544;2023-10-13T00:18:25;21.20;;;7.53;;
18376;SDS011;9315;52.624;13.544;2023-10-13T00:21:00;19.60;;;6.83;;
18376;SDS011;9315;52.624;13.544;2023-10-13T00:23:39;21.67;;;6.37;;
18376;SDS011;9315;52.624;13.544;2023-10-13T00:26:19;30.20;;;8.20;;
18376;SDS011;9315;52.624;13.544;2023-10-13T00:28:50;24.87;;;7.47;;
18376;SDS011;9315;52.624;13.544;2023-10-13T00:31:25;22.83;;;7.13;;
18376;SDS011;9315;52.624;13.544;2023-10-13T00:33:58;17.57;;;5.60;;
18376;SDS011;9315;52.624;13.544;2023-10-13T00:36:36;14.33;;;5.77;;
18376;SDS011;9315;52.624;13.544;2023-10-13T00:39:03;16.47;;;6.30;;
18376;SDS011;9315;52.624;13.544;2023-10-13T00:41:33;22.33;;;6.73;;
18376;SDS011;9315;52.624;13.544;2023-10-13T00:44:19;16.90;;;6.20;;
18376;SDS011;9315;52.624;13.544;2023-10-13T00:47:04;18.03;;;6.47;;
18376;SDS011;9315;52.624;13.544;2023-10-13T00:49:34;15.93;;;5.57;;
18376;SDS011;9315;52.624;13.544;2023-10-13T00:52:06;15.27;;;5.27;;
18376;SDS011;9315;52.624;13.544;2023-10-13T00:54:36;14.83;;;4.80;;
18376;SDS011;9315;52.624;13.544;2023-10-13T00:57:04;15.47;;;4.07;;
18376;SDS011;9315;52.624;13.544;2023-10-13T00:59:38;10.63;;;3.43;;
18376;SDS011;9315;52.624;13.544;2023-10-13T01:02:08;13.37;;;3.70;;
18376;SDS011;9315;52.624;13.544;2023-10-13T01:04:53;15.77;;;4.20;;
18376;SDS011;9315;52.624;13.544;2023-10-13T01:07:20;13.10;;;4.10;;
18376;SDS011;9315;52.624;13.544;2023-10-13T01:09:49;13.33;;;4.20;;
18376;SDS011;9315;52.624;13.544;2023-10-13T01:12:16;16.93;;;3.77;;
18376;SDS011;9315;52.624;13.544;2023-10-13T01:14:42;16.83;;;4.37;;
18376;SDS011;9315;52.624;13.544;2023-10-13T01:17:10;12.37;;;3.97;;
18376;SDS011;9315;52.624;13.544;2023-10-13T01:19:37;13.00;;;4.07;;
18376;SDS011;9315;52.624;13.544;2023-10-13T01:22:11;14.87;;;3.47;;
18376;SDS011;9315;52.624;13.544;2023-10-13T01:24:38;12.07;;;3.47;;
18376;SDS011;9315;52.624;13.544;2023-10-13T01:27:05;12.17;;;3.70;;
18376;SDS011;9315;52.624;13.544;2023-10-13T01:29:46;10.13;;;3.40;;
18376;SDS011;9315;52.624;13.544;2023-10-13T01:32:23;11.80;;;2.73;;
18376;SDS011;9315;52.624;13.544;2023-10-13T01:34:50;10.07;;;3.40;;
18376;SDS011;9315;52.624;13.544;2023-10-13T01:37:22;11.33;;;3.67;;
18376;SDS011;9315;52.624;13.544;2023-10-13T01:39:49;10.50;;;3.50;;
18376;SDS011;9315;52.624;13.544;2023-10-13T01:42:17;9.20;;;2.97;;
18376;SDS011;9315;52.624;13.544;2023-10-13T01:44:48;14.17;;;2.97;;
18376;SDS011;9315;52.624;13.544;2023-10-13T01:47:15;12.97;;;2.93;;
18376;SDS011;9315;52.624;13.544;2023-10-13T01:49:43;12.77;;;4.47;;
18376;SDS011;9315;52.624;13.544;2023-10-13T01:52:14;10.67;;;3.10;;
18376;SDS011;9315;52.624;13.544;2023-10-13T01:54:47;15.83;;;2.77;;
18376;SDS011;9315;52.624;13.544;2023-10-13T01:57:17;10.67;;;2.80;;
18376;SDS011;9315;52.624;13.544;2023-10-13T01:59:45;11.90;;;2.43;;
18376;SDS011;9315;52.624;13.544;2023-10-13T02:02:15;12.17;;;2.70;;
18376;SDS011;9315;52.624;13.544;2023-10-13T02:04:55;10.50;;;2.63;;
18376;SDS011;9315;52.624;13.544;2023-10-13T02:07:24;8.83;;;2.10;;
18376;SDS011;9315;52.624;13.544;2023-10-13T02:09:56;9.03;;;2.40;;
18376;SDS011;9315;52.624;13.544;2023-10-13T02:12:23;6.10;;;1.97;;
18376;SDS011;9315;52.624;13.544;2023-10-13T02:14:55;10.00;;;2.40;;
18376;SDS011;9315;52.624;13.544;2023-10-13T02:17:22;11.27;;;2.30;;
18376;SDS011;9315;52.624;13.544;2023-10-13T02:19:49;12.63;;;2.37;;
18376;SDS011;9315;52.624;13.544;2023-10-13T02:22:20;15.13;;;2.43;;
18376;SDS011;9315;52.624;13.544;2023-10-13T02:24:54;13.17;;;3.17;;
18376;SDS011;9315;52.624;13.544;2023-10-13T02:27:27;16.87;;;3.53;;
18376;SDS011;9315;52.624;13.544;2023-10-13T02:29:54;14.40;;;3.40;;
18376;SDS011;9315;52.624;13.544;2023-10-13T02:32:25;14.20;;;3.90;;
18376;SDS011;9315;52.624;13.544;2023-10-13T02:34:53;21.40;;;4.57;;
18376;SDS011;9315;52.624;13.544;2023-10-13T02:37:24;14.87;;;3.80;;
18376;SDS011;9315;52.624;13.544;2023-10-13T02:39:51;25.83;;;4.67;;
18376;SDS011;9315;52.624;13.544;2023-10-13T02:42:17;13.43;;;4.07;;
18376;SDS011;9315;52.624;13.544;2023-10-13T02:44:51;19.60;;;4.83;;
18376;SDS011;9315;52.624;13.544;2023-10-13T02:47:21;22.57;;;5.43;;
18376;SDS011;9315;52.624;13.544;2023-10-13T02:49:50;23.90;;;5.17;;
18376;SDS011;9315;52.624;13.544;2023-10-13T02:52:17;31.57;;;6.20;;
18376;SDS011;9315;52.624;13.544;2023-10-13T02:54:46;19.57;;;5.50;;
18376;SDS011;9315;52.624;13.544;2023-10-13T02:57:13;28.07;;;6.07;;
18376;SDS011;9315;52.624;13.544;2023-10-13T02:59:44;35.03;;;6.83;;
18376;SDS011;9315;52.624;13.544;2023-10-13T03:02:21;26.23;;;6.43;;
18376;SDS011;9315;52.624;13.544;2023-10-13T03:04:52;23.77;;;5.83;;
18376;SDS011;9315;52.624;13.544;2023-10-13T03:07:36;25.00;;;6.43;;
18376;SDS011;9315;52.624;13.544;2023-10-13T03:10:03;30.43;;;6.60;;
18376;SDS011;9315;52.624;13.544;2023-10-13T03:12:40;24.90;;;6.40;;
18376;SDS011;9315;52.624;13.544;2023-10-13T03:15:07;31.83;;;7.60;;
18376;SDS011;9315;52.624;13.544;2023-10-13T03:17:44;27.30;;;7.80;;
18376;SDS011;9315;52.624;13.544;2023-10-13T03:20:16;26.07;;;8.10;;
18376;SDS011;9315;52.624;13.544;2023-10-13T03:23:04;35.70;;;8.47;;
18376;SDS011;9315;52.624;13.544;2023-10-13T03:25:36;35.63;;;8.10;;
18376;SDS011;9315;52.624;13.544;2023-10-13T03:28:16;27.77;;;8.43;;
18376;SDS011;9315;52.624;13.544;2023-10-13T03:30:49;26.37;;;8.47;;
18376;SDS011;9315;52.624;13.544;2023-10-13T03:33:19;22.63;;;7.93;;
18376;SDS011;9315;52.624;13.544;2023-10-13T03:35:52;26.70;;;8.50;;
18376;SDS011;9315;52.624;13.544;2023-10-13T03:38:31;27.10;;;9.17;;
18376;SDS011;9315;52.624;13.544;2023-10-13T03:41:02;30.93;;;9.17;;
18376;SDS011;9315;52.624;13.544;2023-10-13T03:43:45;29.47;;;9.57;;
18376;SDS011;9315;52.624;13.544;2023-10-13T03:46:12;27.13;;;7.83;;
18376;SDS011;9315;52.624;13.544;2023-10-13T03:48:39;28.87;;;9.77;;
18376;SDS011;9315;52.624;13.544;2023-10-13T03:51:21;24.47;;;8.80;;
18376;SDS011;9315;52.624;13.544;2023-10-13T03:53:48;23.13;;;9.30;;
18376;SDS011;9315;52.624;13.544;2023-10-13T03:56:24;23.50;;;8.80;;
18376;SDS011;9315;52.624;13.544;2023-10-13T03:58:58;19.57;;;8.67;;
18376;SDS011;9315;52.624;13.544;2023-10-13T04:01:47;17.60;;;8.57;;
18376;SDS011;9315;52.624;13.544;2023-10-13T04:04:18;17.67;;;8.07;;
18376;SDS011;9315;52.624;13.544;2023-10-13T04:07:03;29.83;;;11.50;;
18376;SDS011;9315;52.624;13.544;2023-10-13T04:09:36;25.63;;;11.40;;
18376;SDS011;9315;52.624;13.544;2023-10-13T04:12:21;26.30;;;11.37;;
18376;SDS011;9315;52.624;13.544;2023-10-13T04:15:13;15.73;;;8.93;;
18376;SDS011;9315;52.624;13.544;2023-10-13T04:17:47;31.73;;;11.83;;
18376;SDS011;9315;52.624;13.544;2023-10-13T04:20:15;29.03;;;13.53;;
18376;SDS011;9315;52.624;13.544;2023-10-13T04:22:54;20.07;;;9.87;;
18376;SDS011;9315;52.624;13.544;2023-10-13T04:25:40;45.27;;;15.70;;
18376;SDS011;9315;52.624;13.544;2023-10-13T04:28:08;26.03;;;11.80;;
18376;SDS011;9315;52.624;13.544;2023-10-13T04:30:43;32.33;;;13.00;;
18376;SDS011;9315;52.624;13.544;2023-10-13T04:33:24;29.77;;;12.17;;
18376;SDS011;9315;52.624;13.544;2023-10-13T04:36:06;32.33;;;13.37;;
18376;SDS011;9315;52.624;13.544;2023-10-13T04:38:54;27.00;;;13.03;;
18376;SDS011;9315;52.624;13.544;2023-10-13T04:41:29;30.23;;;13.73;;
18376;SDS011;9315;52.624;13.544;2023-10-13T04:44:17;25.00;;;12.07;;
18376;SDS011;9315;52.624;13.544;2023-10-13T04:46:56;30.00;;;13.00;;
18376;SDS011;9315;52.624;13.544;2023-10-13T04:49:28;21.77;;;10.73;;
18376;SDS011;9315;52.624;13.544;2023-10-13T04:52:09;28.37;;;14.00;;
18376;SDS011;9315;52.624;13.544;2023-10-13T04:54:43;23.10;;;12.33;;
18376;SDS011;9315;52.624;13.544;2023-10-13T04:57:18;32.03;;;14.40;;
18376;SDS011;9315;52.624;13.544;2023-10-13T05:00:12;40.13;;;16.30;;
18376;SDS011;9315;52.624;13.544;2023-10-13T05:02:46;30.87;;;15.13;;
18376;SDS011;9315;52.624;13.544;2023-10-13T05:05:33;33.20;;;15.27;;
18376;SDS011;9315;52.624;13.544;2023-10-13T05:08:12;33.60;;;15.97;;
18376;SDS011;9315;52.624;13.544;2023-10-13T05:11:03;29.17;;;14.80;;
18376;SDS011;9315;52.624;13.544;2023-10-13T05:13:50;29.23;;;14.37;;
18376;SDS011;9315;52.624;13.544;2023-10-13T05:16:35;32.00;;;17.57;;
18376;SDS011;9315;52.624;13.544;2023-10-13T05:19:21;31.77;;;14.97;;
18376;SDS011;9315;52.624;13.544;2023-10-13T05:22:07;32.67;;;15.93;;
18376;SDS011;9315;52.624;13.544;2023-10-13T05:24:52;31.73;;;14.80;;
18376;SDS011;9315;52.624;13.544;2023-10-13T05:27:37;27.70;;;15.17;;
18376;SDS011;9315;52.624;13.544;2023-10-13T05:30:29;33.97;;;16.23;;
18376;SDS011;9315;52.624;13.544;2023-10-13T05:33:14;24.23;;;14.37;;
18376;SDS011;9315;52.624;13.544;2023-10-13T05:36:00;32.40;;;15.20;;
18376;SDS011;9315;52.624;13.544;2023-10-13T05:38:45;24.87;;;14.43;;
18376;SDS011;9315;52.624;13.544;2023-10-13T05:41:30;24.23;;;14.30;;
18376;SDS011;9315;52.624;13.544;2023-10-13T05:44:18;37.07;;;17.40;;
18376;SDS011;9315;52.624;13.544;2023-10-13T05:47:03;25.90;;;14.80;;
18376;SDS011;9315;52.624;13.544;2023-10-13T05:49:50;30.70;;;16.90;;
18376;SDS011;9315;52.624;13.544;2023-10-13T05:52:29;27.93;;;15.73;;
18376;SDS011;9315;52.624;13.544;2023-10-13T05:55:35;19.60;;;13.13;;
18376;SDS011;9315;52.624;13.544;2023-10-13T05:58:20;30.20;;;16.77;;
18376;SDS011;9315;52.624;13.544;2023-10-13T06:01:05;27.80;;;15.97;;
18376;SDS011;9315;52.624;13.544;2023-10-13T06:03:56;30.23;;;16.80;;
18376;SDS011;9315;52.624;13.544;2023-10-13T06:06:41;25.17;;;15.27;;
18376;SDS011;9315;52.624;13.544;2023-10-13T06:09:27;25.03;;;16.43;;
18376;SDS011;9315;52.624;13.544;2023-10-13T06:12:22;25.87;;;15.30;;
18376;SDS011;9315;52.624;13.544;2023-10-13T06:15:07;23.13;;;14.27;;
18376;SDS011;9315;52.624;13.544;2023-10-13T06:18:58;27.40;;;15.13;;
18376;SDS011;9315;52.624;13.544;2023-10-13T06:21:44;23.17;;;12.37;;
18376;SDS011;9315;52.624;13.544;2023-10-13T06:24:30;21.90;;;14.10;;
18376;SDS011;9315;52.624;13.544;2023-10-13T06:27:17;26.50;;;14.20;;
18376;SDS011;9315;52.624;13.544;2023-10-13T06:30:02;28.57;;;13.80;;
18376;SDS011;9315;52.624;13.544;2023-10-13T06:32:33;21.33;;;14.10;;
18376;SDS011;9315;52.624;13.544;2023-10-13T06:35:00;22.37;;;12.80;;
18376;SDS011;9315;52.624;13.544;2023-10-13T06:37:34;22.50;;;12.73;;
18376;SDS011;9315;52.624;13.544;2023-10-13T06:40:09;21.97;;;12.73;;
18376;SDS011;9315;52.624;13.544;2023-10-13T06:42:59;22.00;;;12.23;;
18376;SDS011;9315;52.624;13.544;2023-10-13T06:45:39;25.93;;;13.47;;
18376;SDS011;9315;52.624;13.544;2023-10-13T06:48:06;25.07;;;13.40;;
18376;SDS011;9315;52.624;13.544;2023-10-13T06:50:37;21.13;;;12.93;;
18376;SDS011;9315;52.624;13.544;2023-10-13T06:53:08;22.03;;;12.33;;
18376;SDS011;9315;52.624;13.544;2023-10-13T06:55:40;23.70;;;12.50;;
18376;SDS011;9315;52.624;13.544;2023-10-13T06:58:07;21.40;;;13.17;;
18376;SDS011;9315;52.624;13.544;2023-10-13T07:00:40;17.57;;;12.00;;
18376;SDS011;9315;52.624;13.544;2023-10-13T07:03:07;20.23;;;11.37;;
18376;SDS011;9315;52.624;13.544;2023-10-13T07:05:44;16.30;;;9.87;;
18376;SDS011;9315;52.624;13.544;2023-10-13T07:08:14;18.17;;;11.40;;
18376;SDS011;9315;52.624;13.544;2023-10-13T07:10:51;17.30;;;10.80;;
18376;SDS011;9315;52.624;13.544;2023-10-13T07:13:44;17.80;;;11.03;;
18376;SDS011;9315;52.624;13.544;2023-10-13T07:16:17;19.23;;;10.00;;
18376;SDS011;9315;52.624;13.544;2023-10-13T07:18:55;16.13;;;10.10;;
18376;SDS011;9315;52.624;13.544;2023-10-13T07:21:25;17.20;;;9.70;;
18376;SDS011;9315;52.624;13.544;2023-10-13T07:23:58;17.30;;;9.97;;
18376;SDS011;9315;52.624;13.544;2023-10-13T07:26:35;17.95;;;10.52;;
18376;SDS011;9315;52.624;13.544;2023-10-13T07:29:25;14.10;;;9.20;;
18376;SDS011;9315;52.624;13.544;2023-10-13T07:31:52;15.87;;;9.60;;
18376;SDS011;9315;52.624;13.544;2023-10-13T07:34:18;14.93;;;9.80;;
18376;SDS011;9315;52.624;13.544;2023-10-13T07:36:58;14.47;;;9.73;;
18376;SDS011;9315;52.624;13.544;2023-10-13T07:39:30;17.73;;;9.23;;
18376;SDS011;9315;52.624;13.544;2023-10-13T07:42:01;17.77;;;8.47;;
18376;SDS011;9315;52.624;13.544;2023-10-13T07:44:45;14.75;;;9.15;;
18376;SDS011;9315;52.624;13.544;2023-10-13T07:47:13;13.73;;;8.47;;
18376;SDS011;9315;52.624;13.544;2023-10-13T07:49:44;14.48;;;8.30;;
18376;SDS011;9315;52.624;13.544;2023-10-13T07:52:14;18.10;;;8.47;;
18376;SDS011;9315;52.624;13.544;2023-10-13T07:54:50;12.75;;;7.90;;
18376;SDS011;9315;52.624;13.544;2023-10-13T07:57:37;16.50;;;8.50;;
18376;SDS011;9315;52.624;13.544;2023-10-13T08:00:20;12.07;;;7.38;;
18376;SDS011;9315;52.624;13.544;2023-10-13T08:03:04;12.73;;;7.30;;
18376;SDS011;9315;52.624;13.544;2023-10-13T08:05:44;9.53;;;6.50;;
18376;SDS011;9315;52.624;13.544;2023-10-13T08:08:38;18.15;;;8.05;;
18376;SDS011;9315;52.624;13.544;2023-10-13T08:11:13;14.30;;;7.68;;
18376;SDS011;9315;52.624;13.544;2023-10-13T08:13:50;16.40;;;6.93;;
18376;SDS011;9315;52.624;13.544;2023-10-13T08:16:38;11.57;;;7.10;;
18376;SDS011;9315;52.624;13.544;2023-10-13T08:19:13;10.48;;;6.70;;
18376;SDS011;9315;52.624;13.544;2023-10-13T08:21:43;13.30;;;7.13;;
18376;SDS011;9315;52.624;13.544;2023-10-13T08:24:41;12.18;;;6.43;;
18376;SDS011;9315;52.624;13.544;2023-10-13T08:27:08;13.57;;;6.88;;
18376;SDS011;9315;52.624;13.544;2023-10-13T08:29:41;15.32;;;6.45;;
18376;SDS011;9315;52.624;13.544;2023-10-13T08:32:17;17.55;;;6.90;;
